Time,TemperatureF,DewpointF,PressureIn,WindDirection,WindDirectionDegrees,WindSpeedMPH,WindSpeedGustMPH,Humidity,HourlyPrecipIn,Conditions,Clouds,dailyrainin,SoftwareType,DateUTC
2013-04-14 00:00:00,46.1,37.0,29.94,ESE,116,2.0,2.0,71,0.00,,,0.00,weatherlink.com 1.10,2013-04-14 05:00:00,
2013-04-14 00:16:00,46.4,37.0,29.95,SE,127,2.0,5.0,70,0.00,,,0.00,weatherlink.com 1.10,2013-04-14 05:16:00,
2013-04-14 00:31:00,46.4,37.0,29.95,East,88,2.0,4.0,70,0.00,,,0.00,weatherlink.com 1.10,2013-04-14 05:31:00,
2013-04-14 00:46:00,46.2,37.0,29.95,ENE,68,1.0,4.0,70,0.00,,,0.00,weatherlink.com 1.10,2013-04-14 05:46:00,
2013-04-14 01:01:00,46.0,37.0,29.95,ESE,115,2.0,3.0,72,0.00,,,0.00,weatherlink.com 1.10,2013-04-14 06:01:00,
2013-04-14 01:16:00,45.8,38.0,29.94,ENE,73,0.0,2.0,73,0.00,,,0.00,weatherlink.com 1.10,2013-04-14 06:16:00,
2013-04-14 01:31:00,45.7,37.0,29.94,ENE,63,1.0,2.0,73,0.00,,,0.00,weatherlink.com 1.10,2013-04-14 06:31:00,
2013-04-14 01:46:00,45.6,37.0,29.93,East,93,0.0,2.0,73,0.00,,,0.00,weatherlink.com 1.10,2013-04-14 06:46:00,
2013-04-14 02:16:00,46.2,37.0,29.91,ENE,65,3.0,6.0,69,0.00,,,0.00,weatherlink.com 1.10,2013-04-14 07:16:00,
2013-04-14 02:31:00,46.2,36.0,29.90,ENE,77,2.0,6.0,68,0.00,,,0.00,weatherlink.com 1.10,2013-04-14 07:31:00,
2013-04-14 03:01:00,46.0,37.0,29.89,ESE,112,5.0,8.0,70,0.00,,,0.00,weatherlink.com 1.10,2013-04-14 08:01:00,
2013-04-14 03:16:00,45.8,37.0,29.88,SE,141,2.0,8.0,72,0.00,,,0.00,weatherlink.com 1.10,2013-04-14 08:16:00,
2013-04-14 03:31:00,45.8,37.0,29.88,East,90,2.0,7.0,71,0.00,,,0.00,weatherlink.com 1.10,2013-04-14 08:31:00,
2013-04-14 03:46:00,45.7,37.0,29.87,East,97,2.0,11.0,73,0.00,,,0.00,weatherlink.com 1.10,2013-04-14 08:46:00,
2013-04-14 04:01:00,45.5,38.0,29.87,East,100,5.0,9.0,74,0.00,,,0.00,weatherlink.com 1.10,2013-04-14 09:01:00,
2013-04-14 04:16:00,45.5,38.0,29.86,ESE,114,2.0,8.0,75,0.00,,,0.00,weatherlink.com 1.10,2013-04-14 09:16:00,
2013-04-14 04:32:00,45.7,39.0,29.86,East,87,2.0,7.0,76,0.00,,,0.00,weatherlink.com 1.10,2013-04-14 09:32:00,
2013-04-14 04:46:00,45.6,39.0,29.87,NE,37,1.0,10.0,78,0.00,,,0.00,weatherlink.com 1.10,2013-04-14 09:46:00,
2013-04-14 05:01:00,45.2,39.0,29.86,East,101,7.0,7.0,79,0.01,,,0.01,weatherlink.com 1.10,2013-04-14 10:01:00,
2013-04-14 05:16:00,44.9,39.0,29.86,ESE,102,3.0,7.0,80,0.01,,,0.01,weatherlink.com 1.10,2013-04-14 10:16:00,
2013-04-14 05:31:00,44.8,39.0,29.85,ESE,121,2.0,7.0,79,0.01,,,0.01,weatherlink.com 1.10,2013-04-14 10:31:00,
2013-04-14 05:46:00,44.5,39.0,29.84,ESE,122,3.0,7.0,80,0.01,,,0.01,weatherlink.com 1.10,2013-04-14 10:46:00,
2013-04-14 06:01:00,44.3,39.0,29.84,ESE,113,1.0,8.0,81,0.00,,,0.01,weatherlink.com 1.10,2013-04-14 11:01:00,
2013-04-14 06:16:00,44.3,39.0,29.83,East,82,1.0,4.0,82,0.00,,,0.01,weatherlink.com 1.10,2013-04-14 11:16:00,
2013-04-14 06:31:00,44.5,39.0,29.82,ENE,71,3.0,7.0,82,0.00,,,0.01,weatherlink.com 1.10,2013-04-14 11:31:00,
2013-04-14 06:46:00,44.6,40.0,29.82,ENE,57,1.0,6.0,83,0.00,,,0.01,weatherlink.com 1.10,2013-04-14 11:46:00,
2013-04-14 07:02:00,44.4,40.0,29.82,East,91,1.0,4.0,83,0.00,,,0.01,weatherlink.com 1.10,2013-04-14 12:02:00,
2013-04-14 07:16:00,44.6,40.0,29.81,ENE,61,1.0,4.0,84,0.00,,,0.01,weatherlink.com 1.10,2013-04-14 12:16:00,
2013-04-14 07:31:00,45.0,41.0,29.80,ENE,70,1.0,7.0,84,0.00,,,0.01,weatherlink.com 1.10,2013-04-14 12:31:00,
2013-04-14 07:46:00,45.2,40.0,29.81,ESE,112,7.0,9.0,83,0.00,,,0.01,weatherlink.com 1.10,2013-04-14 12:46:00,
2013-04-14 08:01:00,45.3,40.0,29.81,ESE,116,5.0,9.0,83,0.00,,,0.01,weatherlink.com 1.10,2013-04-14 13:01:00,
2013-04-14 08:16:00,45.6,41.0,29.82,ESE,108,7.0,10.0,84,0.00,,,0.01,weatherlink.com 1.10,2013-04-14 13:16:00,
2013-04-14 08:32:00,46.5,42.0,29.83,ESE,103,6.0,12.0,83,0.00,,,0.01,weatherlink.com 1.10,2013-04-14 13:32:00,
2013-04-14 08:47:00,47.3,42.0,29.82,ESE,122,7.0,12.0,82,0.00,,,0.01,weatherlink.com 1.10,2013-04-14 13:47:00,
2013-04-14 09:02:00,48.5,43.0,29.82,ESE,113,6.0,11.0,81,0.00,,,0.01,weatherlink.com 1.10,2013-04-14 14:02:00,
2013-04-14 09:17:00,50.1,44.0,29.81,SE,137,5.0,9.0,79,0.00,,,0.01,weatherlink.com 1.10,2013-04-14 14:17:00,
2013-04-14 09:32:00,52.6,45.0,29.80,SSE,149,6.0,13.0,74,0.00,,,0.01,weatherlink.com 1.10,2013-04-14 14:32:00,
2013-04-14 09:47:00,54.3,44.0,29.78,SSE,155,8.0,12.0,68,0.00,,,0.01,weatherlink.com 1.10,2013-04-14 14:47:00,
2013-04-14 10:02:00,55.7,44.0,29.78,ESE,116,10.0,15.0,66,0.00,,,0.01,weatherlink.com 1.10,2013-04-14 15:02:00,
2013-04-14 10:17:00,57.0,46.0,29.77,ESE,116,9.0,13.0,66,0.00,,,0.01,weatherlink.com 1.10,2013-04-14 15:17:00,
2013-04-14 10:32:00,58.3,46.0,29.76,SE,131,10.0,18.0,64,0.00,,,0.01,weatherlink.com 1.10,2013-04-14 15:32:00,
2013-04-14 10:47:00,59.9,47.0,29.76,SE,131,14.0,16.0,63,0.00,,,0.01,weatherlink.com 1.10,2013-04-14 15:47:00,
2013-04-14 11:02:00,61.2,48.0,29.76,ESE,110,5.0,14.0,63,0.00,,,0.01,weatherlink.com 1.10,2013-04-14 16:02:00,
2013-04-14 11:17:00,62.0,48.0,29.75,SE,125,5.0,15.0,61,0.00,,,0.01,weatherlink.com 1.10,2013-04-14 16:17:00,
2013-04-14 11:32:00,63.3,49.0,29.74,ESE,123,12.0,15.0,61,0.00,,,0.01,weatherlink.com 1.10,2013-04-14 16:32:00,
2013-04-14 11:47:00,64.7,49.0,29.73,SE,137,11.0,15.0,57,0.00,,,0.01,weatherlink.com 1.10,2013-04-14 16:47:00,
2013-04-14 12:02:00,65.7,50.0,29.71,ESE,118,7.0,15.0,58,0.00,,,0.01,weatherlink.com 1.10,2013-04-14 17:02:00,
2013-04-14 12:17:00,66.8,51.0,29.70,SE,134,11.0,18.0,57,0.00,,,0.01,weatherlink.com 1.10,2013-04-14 17:17:00,
2013-04-14 12:32:00,68.4,51.0,29.68,NE,37,8.0,17.0,54,0.00,,,0.01,weatherlink.com 1.10,2013-04-14 17:32:00,
2013-04-14 12:48:00,70.2,52.0,29.67,SE,137,10.0,16.0,53,0.00,,,0.01,weatherlink.com 1.10,2013-04-14 17:48:00,
2013-04-14 13:03:00,70.9,52.0,29.66,SSE,163,13.0,18.0,52,0.00,,,0.01,weatherlink.com 1.10,2013-04-14 18:03:00,
2013-04-14 13:18:00,72.3,51.0,29.66,South,176,14.0,16.0,48,0.00,,,0.01,weatherlink.com 1.10,2013-04-14 18:18:00,
2013-04-14 13:33:00,73.2,51.0,29.65,SE,131,18.0,21.0,45,0.00,,,0.01,weatherlink.com 1.10,2013-04-14 18:33:00,
2013-04-14 13:48:00,73.6,51.0,29.65,SE,141,8.0,22.0,45,0.00,,,0.01,weatherlink.com 1.10,2013-04-14 18:48:00,
2013-04-14 14:03:00,74.1,50.0,29.64,SSE,162,8.0,21.0,43,0.00,,,0.01,weatherlink.com 1.10,2013-04-14 19:03:00,
2013-04-14 14:18:00,73.9,51.0,29.64,ESE,111,4.0,19.0,44,0.00,,,0.01,weatherlink.com 1.10,2013-04-14 19:18:00,
2013-04-14 14:33:00,74.0,49.0,29.62,SE,141,10.0,18.0,42,0.00,,,0.01,weatherlink.com 1.10,2013-04-14 19:33:00,
2013-04-14 14:48:00,73.6,49.0,29.62,ESE,117,12.0,26.0,42,0.00,,,0.01,weatherlink.com 1.10,2013-04-14 19:48:00,
2013-04-14 15:03:00,75.2,50.0,29.61,South,169,8.0,21.0,42,0.00,,,0.01,weatherlink.com 1.10,2013-04-14 20:03:00,
2013-04-14 15:18:00,75.0,48.0,29.59,SE,131,12.0,24.0,39,0.00,,,0.01,weatherlink.com 1.10,2013-04-14 20:18:00,
2013-04-14 15:33:00,75.3,48.0,29.59,SE,125,12.0,23.0,38,0.00,,,0.01,weatherlink.com 1.10,2013-04-14 20:33:00,
2013-04-14 15:48:00,75.2,48.0,29.58,SSE,155,13.0,22.0,39,0.00,,,0.01,weatherlink.com 1.10,2013-04-14 20:48:00,
2013-04-14 16:03:00,76.0,49.0,29.58,SSE,148,7.0,22.0,39,0.00,,,0.01,weatherlink.com 1.10,2013-04-14 21:03:00,
2013-04-14 16:18:00,74.8,47.0,29.57,SE,132,11.0,21.0,38,0.00,,,0.01,weatherlink.com 1.10,2013-04-14 21:18:00,
2013-04-14 16:33:00,74.4,48.0,29.57,SE,133,15.0,26.0,40,0.00,,,0.01,weatherlink.com 1.10,2013-04-14 21:33:00,
2013-04-14 16:48:00,75.1,50.0,29.57,South,172,6.0,18.0,41,0.00,,,0.01,weatherlink.com 1.10,2013-04-14 21:48:00,
2013-04-14 17:18:00,73.7,51.0,29.55,South,176,7.0,15.0,45,0.00,,,0.01,weatherlink.com 1.10,2013-04-14 22:18:00,
2013-04-14 17:33:00,73.1,50.0,29.55,SE,139,9.0,22.0,44,0.00,,,0.01,weatherlink.com 1.10,2013-04-14 22:33:00,
2013-04-14 17:48:00,72.6,49.0,29.54,SSE,158,14.0,22.0,43,0.00,,,0.01,weatherlink.com 1.10,2013-04-14 22:48:00,
2013-04-14 18:03:00,72.4,48.0,29.55,SE,130,19.0,19.0,42,0.00,,,0.01,weatherlink.com 1.10,2013-04-14 23:03:00,
2013-04-14 18:18:00,72.2,48.0,29.55,ESE,122,11.0,22.0,42,0.00,,,0.01,weatherlink.com 1.10,2013-04-14 23:18:00,
2013-04-14 18:34:00,71.8,47.0,29.56,SSE,162,9.0,22.0,42,0.00,,,0.01,weatherlink.com 1.10,2013-04-14 23:34:00,
2013-04-14 18:49:00,71.4,48.0,29.56,ESE,112,11.0,17.0,44,0.00,,,0.01,weatherlink.com 1.10,2013-04-14 23:49:00,
2013-04-14 19:04:00,70.9,48.0,29.56,SE,129,20.0,20.0,45,0.00,,,0.01,weatherlink.com 1.10,2013-04-15 00:04:00,
2013-04-14 19:19:00,70.5,49.0,29.56,SE,133,17.0,21.0,46,0.00,,,0.01,weatherlink.com 1.10,2013-04-15 00:19:00,
2013-04-14 19:34:00,70.1,48.0,29.56,SE,146,16.0,-999.0,46,-99.99,,,0.01,weatherlink.com 1.10,2013-04-15 00:34:00,
2013-04-14 19:49:00,69.9,49.0,29.56,SSE,162,12.0,20.0,47,0.00,,,0.01,weatherlink.com 1.10,2013-04-15 00:49:00,
2013-04-14 20:04:00,69.5,49.0,29.56,SE,131,7.0,18.0,49,0.00,,,0.01,weatherlink.com 1.10,2013-04-15 01:04:00,
2013-04-14 20:19:00,69.1,50.0,29.56,SSE,153,9.0,21.0,51,0.00,,,0.01,weatherlink.com 1.10,2013-04-15 01:19:00,
2013-04-14 20:34:00,68.7,51.0,29.56,ESE,106,7.0,19.0,53,0.00,,,0.01,weatherlink.com 1.10,2013-04-15 01:34:00,
2013-04-14 20:49:00,68.5,52.0,29.57,SSE,160,9.0,21.0,56,0.00,,,0.01,weatherlink.com 1.10,2013-04-15 01:49:00,
2013-04-14 21:04:00,68.2,54.0,29.58,SSE,156,17.0,23.0,60,0.00,,,0.01,weatherlink.com 1.10,2013-04-15 02:04:00,
2013-04-14 21:19:00,67.9,55.0,29.57,SE,134,8.0,22.0,63,0.00,,,0.01,weatherlink.com 1.10,2013-04-15 02:19:00,
2013-04-14 21:34:00,67.5,55.0,29.57,South,170,10.0,19.0,64,0.00,,,0.01,weatherlink.com 1.10,2013-04-15 02:34:00,
2013-04-14 21:49:00,67.5,55.0,29.58,South,174,8.0,30.0,65,0.00,,,0.01,weatherlink.com 1.10,2013-04-15 02:49:00,
2013-04-14 22:04:00,67.1,55.0,29.58,South,170,9.0,23.0,66,0.00,,,0.01,weatherlink.com 1.10,2013-04-15 03:04:00,
2013-04-14 22:19:00,66.8,55.0,29.58,SE,136,13.0,25.0,66,0.00,,,0.01,weatherlink.com 1.10,2013-04-15 03:19:00,
2013-04-14 22:35:00,66.6,55.0,29.57,SSE,160,11.0,21.0,66,0.00,,,0.01,weatherlink.com 1.10,2013-04-15 03:35:00,
2013-04-14 22:49:00,66.3,55.0,29.56,ESE,115,12.0,26.0,67,0.00,,,0.01,weatherlink.com 1.10,2013-04-15 03:49:00,
2013-04-14 23:04:00,65.8,54.0,29.57,SSE,158,17.0,26.0,67,0.00,,,0.01,weatherlink.com 1.10,2013-04-15 04:04:00,
2013-04-14 23:19:00,65.9,54.0,29.59,SE,146,17.0,26.0,66,0.00,,,0.01,weatherlink.com 1.10,2013-04-15 04:19:00,
2013-04-14 23:34:00,65.9,53.0,29.59,SSE,153,17.0,28.0,63,0.00,,,0.01,weatherlink.com 1.10,2013-04-15 04:34:00,
2013-04-14 23:49:00,65.7,52.0,29.61,SE,135,18.0,29.0,62,0.00,,,0.01,weatherlink.com 1.10,2013-04-15 04:49:00,